Aviation Digital Data Service (ADDS)

Output produced by METARs form (0147 UTC 19 December 2018)
found at http://aviationweather.gov/metar/data/
 
KMCB 190053Z AUTO 00000KT 10SM CLR 12/08 A3008 RMK AO2 SLP185 T01170083
KMCB 182329Z 1900/1924 00000KT P6SM OVC250 
     FM191600 12005KT P6SM VCSH OVC060 
     FM191800 12005KT 6SM -SHRA OVC030 
     FM192100 09005KT 3SM SHRA OVC006